createdAt,value
2019-06-08T00:00:02.257Z,18.62
2019-06-08T00:02:10.464Z,18.62
2019-06-08T00:04:16.867Z,18.58
2019-06-08T00:06:23.495Z,18.57
2019-06-08T00:08:29.906Z,18.56
2019-06-08T00:10:36.516Z,18.52
2019-06-08T00:12:42.936Z,18.50
2019-06-08T00:14:49.428Z,18.49
2019-06-08T00:16:55.888Z,18.48
2019-06-08T00:19:02.378Z,18.50
2019-06-08T00:21:08.794Z,18.51
2019-06-08T00:23:15.723Z,18.53
2019-06-08T00:25:22.559Z,18.52
2019-06-08T00:27:30.237Z,18.51
2019-06-08T00:29:36.709Z,18.49
2019-06-08T00:31:43.104Z,18.47
2019-06-08T00:33:49.530Z,18.46
2019-06-08T00:35:55.979Z,18.43
2019-06-08T00:38:02.479Z,18.39
2019-06-08T00:40:09.757Z,18.39
2019-06-08T00:42:17.078Z,18.40
2019-06-08T00:44:23.664Z,18.40
2019-06-08T00:46:30.163Z,18.38
2019-06-08T00:48:36.645Z,18.34
2019-06-08T00:50:43.202Z,18.30
2019-06-08T00:52:49.621Z,18.26
2019-06-08T00:54:56.095Z,18.23
2019-06-08T00:57:02.534Z,18.20
2019-06-08T00:59:08.963Z,18.17
2019-06-08T01:01:15.361Z,18.15
2019-06-08T01:03:21.987Z,18.16
2019-06-08T01:05:28.409Z,18.20
2019-06-08T01:07:34.950Z,18.19
2019-06-08T01:09:41.424Z,18.16
2019-06-08T01:11:47.836Z,18.18
2019-06-08T01:13:54.360Z,18.15
2019-06-08T01:16:00.755Z,18.13
2019-06-08T01:18:07.360Z,18.12
2019-06-08T01:20:14.204Z,18.09
2019-06-08T01:22:21.614Z,18.04
2019-06-08T01:24:28.222Z,17.99
2019-06-08T01:26:34.637Z,17.95
2019-06-08T01:28:41.131Z,17.92
2019-06-08T01:30:47.730Z,17.90
2019-06-08T01:32:54.225Z,17.89
2019-06-08T01:35:00.630Z,17.88
2019-06-08T01:37:07.200Z,17.86
2019-06-08T01:39:13.598Z,17.86
2019-06-08T01:41:21.339Z,17.82
2019-06-08T01:43:27.824Z,17.79
2019-06-08T01:45:34.309Z,17.76
2019-06-08T01:47:40.739Z,17.73
2019-06-08T01:49:47.209Z,17.68
2019-06-08T01:51:53.804Z,17.65
2019-06-08T01:54:00.292Z,17.63
2019-06-08T01:56:06.720Z,17.61
2019-06-08T01:58:13.288Z,17.58
2019-06-08T02:00:29.887Z,17.59
2019-06-08T02:02:29.969Z,17.57
2019-06-08T02:04:36.460Z,17.57
2019-06-08T02:06:42.936Z,17.56
2019-06-08T02:08:51.235Z,17.55
2019-06-08T02:10:57.868Z,17.55
2019-06-08T02:13:08.282Z,17.56
2019-06-08T02:15:14.805Z,17.54
2019-06-08T02:17:21.190Z,17.55
2019-06-08T02:19:28.385Z,17.57
2019-06-08T02:21:35.006Z,17.56
2019-06-08T02:23:41.418Z,17.55
2019-06-08T02:25:47.968Z,17.55
2019-06-08T02:27:54.571Z,17.56
2019-06-08T02:30:00.966Z,17.60
2019-06-08T02:32:07.445Z,17.63
2019-06-08T02:34:13.868Z,17.66
2019-06-08T02:36:20.275Z,17.68
2019-06-08T02:38:27.585Z,17.67
2019-06-08T02:40:35.172Z,17.65
2019-06-08T02:42:42.521Z,17.66
2019-06-08T02:44:48.916Z,17.67
2019-06-08T02:46:55.458Z,17.69
2019-06-08T02:49:04.417Z,17.71
2019-06-08T02:51:10.507Z,17.73
2019-06-08T02:53:18.719Z,17.77
2019-06-08T02:55:28.702Z,17.80
2019-06-08T02:57:39.871Z,17.86
2019-06-08T02:59:49.992Z,17.92
2019-06-08T03:01:59.964Z,17.96
2019-06-08T03:04:06.797Z,18.03
2019-06-08T03:06:15.665Z,18.11
2019-06-08T03:08:22.782Z,18.15
2019-06-08T03:10:32.877Z,18.22
2019-06-08T03:12:42.508Z,18.29
2019-06-08T03:14:53.102Z,18.37
2019-06-08T03:16:59.634Z,18.41
2019-06-08T03:19:20.835Z,18.47
2019-06-08T03:21:14.491Z,18.51
2019-06-08T03:23:21.870Z,18.54
2019-06-08T03:25:28.292Z,18.63
2019-06-08T03:27:35.281Z,18.70
2019-06-08T03:29:43.961Z,18.74
2019-06-08T03:31:55.906Z,18.82
2019-06-08T03:33:58.734Z,18.89
2019-06-08T03:36:05.133Z,19.00
2019-06-08T03:38:11.655Z,19.08
2019-06-08T03:40:18.414Z,19.19
2019-06-08T03:42:24.846Z,19.34
2019-06-08T03:44:31.261Z,19.43
2019-06-08T03:46:38.837Z,19.56
2019-06-08T03:48:46.583Z,19.63
2019-06-08T03:50:53.107Z,19.75
2019-06-08T03:52:59.527Z,19.91
2019-06-08T03:55:07.740Z,20.08
2019-06-08T03:57:14.264Z,20.42
2019-06-08T03:59:20.763Z,21.24
2019-06-08T04:01:27.232Z,22.24
2019-06-08T04:03:33.725Z,23.17
2019-06-08T04:05:42.289Z,23.97
2019-06-08T04:07:50.469Z,24.66
2019-06-08T04:09:57.212Z,25.08
2019-06-08T04:12:03.810Z,25.81
2019-06-08T04:14:10.280Z,26.07
2019-06-08T04:16:16.725Z,26.39
2019-06-08T04:18:23.110Z,26.49
2019-06-08T04:20:29.503Z,26.83
2019-06-08T04:22:42.133Z,27.24
2019-06-08T04:24:50.429Z,27.51
2019-06-08T04:26:56.931Z,27.60
2019-06-08T04:29:03.344Z,27.95
2019-06-08T04:31:09.726Z,28.47
2019-06-08T04:33:17.881Z,29.03
2019-06-08T04:35:24.350Z,29.04
2019-06-08T04:37:30.737Z,29.31
2019-06-08T04:39:38.419Z,29.46
2019-06-08T04:41:47.191Z,29.47
2019-06-08T04:43:54.463Z,29.95
2019-06-08T04:46:00.724Z,29.87
2019-06-08T04:48:09.728Z,30.37
2019-06-08T04:50:22.593Z,31.02
2019-06-08T04:52:23.691Z,31.33
2019-06-08T04:54:29.956Z,31.05
2019-06-08T04:56:36.347Z,31.45
2019-06-08T04:58:45.992Z,31.40
2019-06-08T05:00:51.933Z,31.70
2019-06-08T05:02:58.398Z,32.46
2019-06-08T05:05:08.679Z,32.40
2019-06-08T05:07:15.088Z,32.28
2019-06-08T05:09:21.589Z,33.15
2019-06-08T05:11:28.013Z,33.73
2019-06-08T05:13:34.484Z,33.78
2019-06-08T05:15:41.418Z,33.60
2019-06-08T05:17:49.520Z,34.02
2019-06-08T05:19:55.477Z,34.76
2019-06-08T05:22:01.759Z,34.24
2019-06-08T05:24:08.185Z,34.12
2019-06-08T05:26:14.813Z,35.08
2019-06-08T05:28:22.360Z,35.90
2019-06-08T05:30:28.843Z,36.18
2019-06-08T05:32:35.342Z,35.98
2019-06-08T05:34:41.768Z,36.14
2019-06-08T05:36:48.190Z,36.44
2019-06-08T05:38:55.057Z,35.87
2019-06-08T05:41:01.491Z,35.86
2019-06-08T05:43:07.900Z,36.08
2019-06-08T05:45:16.022Z,35.98
2019-06-08T05:47:21.650Z,36.29
2019-06-08T05:49:28.060Z,37.01
2019-06-08T05:51:34.461Z,37.21
2019-06-08T05:53:41.653Z,37.29
2019-06-08T05:55:48.172Z,36.83
2019-06-08T05:57:54.573Z,37.49
2019-06-08T06:00:08.445Z,37.61
2019-06-08T06:02:09.263Z,37.69
2019-06-08T06:04:15.806Z,38.11
2019-06-08T06:06:23.172Z,38.14
2019-06-08T06:08:29.859Z,38.34
2019-06-08T06:10:36.348Z,38.34
2019-06-08T06:12:43.023Z,38.33
2019-06-08T06:14:49.549Z,38.98
2019-06-08T06:16:55.951Z,38.78
2019-06-08T06:19:02.444Z,39.54
2019-06-08T06:21:11.791Z,40.24
2019-06-08T06:23:18.639Z,40.94
2019-06-08T06:25:25.165Z,40.52
2019-06-08T06:27:31.617Z,40.02
2019-06-08T06:29:38.047Z,40.05
2019-06-08T06:31:45.781Z,40.52
2019-06-08T06:33:52.350Z,40.48
2019-06-08T06:35:58.812Z,40.11
2019-06-08T06:38:05.468Z,40.04
2019-06-08T06:40:12.097Z,40.95
2019-06-08T06:42:18.610Z,41.87
2019-06-08T06:44:25.299Z,42.52
2019-06-08T06:46:31.809Z,41.85
2019-06-08T06:48:38.259Z,41.81
2019-06-08T06:50:44.667Z,42.44
2019-06-08T06:52:51.148Z,42.84
2019-06-08T06:54:57.616Z,43.04
2019-06-08T06:57:04.038Z,42.33
2019-06-08T06:59:11.412Z,42.05
2019-06-08T07:01:18.099Z,43.17
2019-06-08T07:03:25.813Z,43.66
2019-06-08T07:05:32.367Z,44.27
2019-06-08T07:07:38.892Z,44.47
2019-06-08T07:09:46.447Z,44.72
2019-06-08T07:11:56.294Z,44.90
2019-06-08T07:14:02.614Z,45.12
2019-06-08T07:16:18.738Z,44.19
2019-06-08T07:18:17.286Z,44.84
2019-06-08T07:20:23.714Z,45.31
2019-06-08T07:22:30.136Z,45.66
2019-06-08T07:24:36.637Z,45.69
2019-06-08T07:26:43.168Z,45.50
2019-06-08T07:28:51.828Z,45.68
2019-06-08T07:30:58.831Z,46.05
2019-06-08T07:33:04.533Z,44.71
2019-06-08T07:35:11.231Z,44.04
2019-06-08T07:37:17.708Z,41.92
2019-06-08T07:39:25.827Z,42.60
2019-06-08T07:41:32.316Z,41.26
2019-06-08T07:43:38.830Z,42.43
2019-06-08T07:45:45.400Z,43.71
2019-06-08T07:47:52.062Z,44.36
2019-06-08T07:49:59.527Z,44.85
2019-06-08T07:52:10.089Z,45.03
2019-06-08T07:54:14.429Z,45.89
2019-06-08T07:56:21.037Z,45.14
2019-06-08T07:58:27.432Z,45.81
2019-06-08T08:00:33.945Z,45.62
2019-06-08T08:02:40.416Z,44.20
2019-06-08T08:04:48.319Z,43.23
2019-06-08T08:06:54.890Z,41.74
2019-06-08T08:09:01.284Z,43.01
2019-06-08T08:11:09.288Z,44.77
2019-06-08T08:13:15.771Z,45.46
2019-06-08T08:15:22.415Z,45.91
2019-06-08T08:17:29.038Z,42.57
2019-06-08T08:19:36.589Z,40.83
2019-06-08T08:21:44.403Z,40.66
2019-06-08T08:23:51.745Z,41.69
2019-06-08T08:26:01.742Z,43.09
2019-06-08T08:28:08.232Z,44.45
2019-06-08T08:30:17.305Z,44.98
2019-06-08T08:32:23.507Z,45.29
2019-06-08T08:34:29.930Z,42.85
2019-06-08T08:36:38.164Z,40.83
2019-06-08T08:38:44.639Z,41.04
2019-06-08T08:40:52.936Z,40.08
2019-06-08T08:43:02.957Z,37.62
2019-06-08T08:45:10.482Z,35.98
2019-06-08T08:47:18.701Z,34.89
2019-06-08T08:49:25.122Z,34.21
2019-06-08T08:51:31.592Z,33.48
2019-06-08T08:53:38.167Z,33.14
2019-06-08T08:55:47.940Z,33.23
2019-06-08T08:57:54.571Z,33.37
2019-06-08T09:00:04.766Z,33.32
2019-06-08T09:02:11.475Z,32.99
2019-06-08T09:04:18.647Z,32.65
2019-06-08T09:06:27.819Z,32.48
2019-06-08T09:08:32.673Z,32.42
2019-06-08T09:10:39.178Z,32.16
2019-06-08T09:12:48.375Z,32.20
2019-06-08T09:14:54.297Z,32.17
2019-06-08T09:17:04.344Z,32.38
2019-06-08T09:19:11.057Z,32.50
2019-06-08T09:21:18.681Z,32.37
2019-06-08T09:23:28.064Z,32.53
2019-06-08T09:25:34.705Z,32.67
2019-06-08T09:27:42.088Z,32.56
2019-06-08T09:29:48.510Z,31.64
2019-06-08T09:31:55.997Z,31.28
2019-06-08T09:34:11.011Z,31.54
2019-06-08T09:36:13.125Z,31.74
2019-06-08T09:38:19.653Z,31.53
2019-06-08T09:40:31.849Z,31.29
2019-06-08T09:42:35.923Z,31.74
2019-06-08T09:44:43.759Z,31.95
2019-06-08T09:46:50.190Z,32.30
2019-06-08T09:49:03.665Z,32.40
2019-06-08T09:51:06.384Z,32.13
2019-06-08T09:53:23.724Z,31.74
2019-06-08T09:55:20.384Z,31.77
2019-06-08T09:57:28.400Z,32.07
2019-06-08T09:59:34.975Z,32.47
2019-06-08T10:01:41.425Z,32.88
2019-06-08T10:03:54.180Z,33.11
2019-06-08T10:06:05.315Z,33.17
2019-06-08T10:08:09.610Z,33.25
2019-06-08T10:10:18.202Z,33.14
2019-06-08T10:12:24.858Z,33.24
2019-06-08T10:14:31.289Z,33.28
2019-06-08T10:16:38.276Z,33.01
2019-06-08T10:18:45.136Z,33.00
2019-06-08T10:20:51.404Z,32.97
2019-06-08T10:23:01.152Z,32.78
2019-06-08T10:25:11.271Z,32.45
2019-06-08T10:27:19.931Z,32.48
2019-06-08T10:29:26.565Z,32.61
2019-06-08T10:31:39.774Z,32.80
2019-06-08T10:33:41.246Z,32.86
2019-06-08T10:35:48.142Z,32.74
2019-06-08T10:37:55.742Z,32.82
2019-06-08T10:40:05.216Z,32.48
2019-06-08T10:42:11.599Z,32.35
2019-06-08T10:44:18.385Z,32.28
2019-06-08T10:46:24.971Z,32.31
2019-06-08T10:48:31.546Z,32.25
2019-06-08T10:50:37.951Z,32.28
2019-06-08T10:52:44.419Z,31.84
2019-06-08T10:54:50.924Z,31.49
2019-06-08T10:57:00.287Z,31.62
2019-06-08T10:59:09.496Z,31.31
2019-06-08T11:01:14.353Z,31.35
2019-06-08T11:03:20.970Z,31.28
2019-06-08T11:05:28.076Z,31.29
2019-06-08T11:07:35.025Z,31.47
2019-06-08T11:09:41.501Z,31.19
2019-06-08T11:11:50.340Z,31.15
2019-06-08T11:13:58.389Z,31.24
2019-06-08T11:16:06.260Z,31.29
2019-06-08T11:18:13.592Z,31.48
2019-06-08T11:20:20.443Z,31.63
2019-06-08T11:22:28.476Z,31.71
2019-06-08T11:24:35.033Z,31.41
2019-06-08T11:26:41.611Z,31.16
2019-06-08T11:28:51.107Z,31.15
2019-06-08T11:30:56.217Z,31.16
2019-06-08T11:33:04.100Z,31.21
2019-06-08T11:35:12.621Z,31.41
2019-06-08T11:37:21.130Z,31.53
2019-06-08T11:39:28.709Z,31.80
2019-06-08T11:41:42.565Z,32.12
2019-06-08T11:43:44.992Z,32.25
2019-06-08T11:45:51.406Z,32.20
2019-06-08T11:47:58.482Z,32.34
2019-06-08T11:50:12.578Z,32.46
2019-06-08T11:52:18.326Z,32.61
2019-06-08T11:54:34.281Z,32.66
2019-06-08T11:56:32.967Z,32.72
2019-06-08T11:58:41.006Z,32.38
2019-06-08T12:01:03.416Z,32.24
2019-06-08T12:03:11.526Z,32.23
2019-06-08T12:05:18.163Z,32.31
2019-06-08T12:07:24.611Z,32.19
2019-06-08T12:09:31.009Z,32.05
2019-06-08T12:11:38.268Z,31.78
2019-06-08T12:13:46.907Z,31.54
2019-06-08T12:15:53.137Z,31.32
2019-06-08T12:17:59.558Z,31.18
2019-06-08T12:20:14.038Z,30.90
2019-06-08T12:22:17.973Z,30.76
2019-06-08T12:24:38.506Z,30.63
2019-06-08T12:26:32.759Z,30.32
2019-06-08T12:28:39.236Z,29.87
2019-06-08T12:30:47.696Z,29.68
2019-06-08T12:32:53.863Z,29.36
2019-06-08T12:35:00.338Z,28.97
2019-06-08T12:37:13.398Z,28.92
2019-06-08T12:39:19.052Z,28.87
2019-06-08T12:41:24.755Z,28.88
2019-06-08T12:43:31.229Z,28.89
2019-06-08T12:45:38.157Z,28.86
2019-06-08T12:47:45.017Z,28.75
2019-06-08T12:49:51.423Z,28.57
2019-06-08T12:52:00.386Z,28.44
2019-06-08T12:54:09.960Z,28.39
2019-06-08T12:56:23.313Z,28.32
2019-06-08T12:58:24.874Z,28.21
2019-06-08T13:00:31.587Z,28.08
2019-06-08T13:02:39.132Z,28.05
2019-06-08T13:04:50.422Z,28.02
2019-06-08T13:06:58.426Z,28.06
2019-06-08T13:09:10.063Z,28.15
2019-06-08T13:11:16.502Z,28.33
2019-06-08T13:13:24.600Z,28.42
2019-06-08T13:15:31.295Z,28.55
2019-06-08T13:17:38.053Z,28.69
2019-06-08T13:19:45.043Z,29.02
2019-06-08T13:21:51.446Z,29.50
2019-06-08T13:23:58.224Z,29.57
2019-06-08T13:26:05.205Z,29.91
2019-06-08T13:28:15.155Z,30.15
2019-06-08T13:30:25.822Z,30.13
2019-06-08T13:32:29.822Z,30.32
2019-06-08T13:34:38.662Z,30.40
2019-06-08T13:36:44.629Z,30.31
2019-06-08T13:38:51.125Z,30.34
2019-06-08T13:40:58.945Z,30.43
2019-06-08T13:43:07.960Z,30.35
2019-06-08T13:45:15.595Z,30.43
2019-06-08T13:47:23.108Z,30.61
2019-06-08T13:49:30.783Z,30.76
2019-06-08T13:51:38.275Z,31.02
2019-06-08T13:53:44.909Z,31.16
2019-06-08T13:55:56.291Z,31.25
2019-06-08T13:57:59.635Z,31.34
2019-06-08T14:00:09.000Z,31.32
2019-06-08T14:02:17.890Z,31.21
2019-06-08T14:04:23.824Z,31.17
2019-06-08T14:06:30.634Z,31.13
2019-06-08T14:08:38.599Z,30.98
2019-06-08T14:10:48.243Z,30.79
2019-06-08T14:12:58.657Z,30.86
2019-06-08T14:15:08.715Z,30.81
2019-06-08T14:17:19.779Z,30.52
2019-06-08T14:19:26.116Z,30.58
2019-06-08T14:21:40.952Z,30.72
2019-06-08T14:23:41.462Z,30.93
2019-06-08T14:25:56.476Z,31.07
2019-06-08T14:27:57.587Z,31.19
2019-06-08T14:30:08.397Z,31.30
2019-06-08T14:32:14.992Z,31.42
2019-06-08T14:34:23.108Z,31.43
2019-06-08T14:36:30.473Z,31.26
2019-06-08T14:38:41.689Z,30.95
2019-06-08T14:40:47.497Z,30.89
2019-06-08T14:42:53.663Z,30.65
2019-06-08T14:45:00.139Z,30.55
2019-06-08T14:47:16.332Z,30.38
2019-06-08T14:49:26.798Z,30.29
2019-06-08T14:51:49.358Z,30.25
2019-06-08T14:53:58.139Z,30.29
2019-06-08T14:56:08.441Z,30.20
2019-06-08T14:58:12.279Z,29.95
2019-06-08T15:00:25.667Z,29.83
2019-06-08T15:02:32.279Z,29.76
2019-06-08T15:04:40.041Z,29.71
2019-06-08T15:06:48.784Z,29.62
2019-06-08T15:08:54.836Z,29.50
2019-06-08T15:11:01.315Z,29.40
2019-06-08T15:13:08.026Z,29.33
2019-06-08T15:15:14.924Z,29.22
2019-06-08T15:17:21.871Z,29.14
2019-06-08T15:19:30.377Z,29.06
2019-06-08T15:21:38.093Z,29.00
2019-06-08T15:23:44.803Z,28.91
2019-06-08T15:25:52.828Z,28.82
2019-06-08T15:28:01.334Z,28.77
2019-06-08T15:30:08.943Z,28.69
2019-06-08T15:32:17.692Z,28.60
2019-06-08T15:34:25.237Z,28.50
2019-06-08T15:36:32.606Z,28.38
2019-06-08T15:38:39.353Z,28.28
2019-06-08T15:40:47.753Z,28.16
2019-06-08T15:42:53.948Z,27.75
2019-06-08T15:45:03.048Z,27.51
2019-06-08T15:47:09.541Z,27.31
2019-06-08T15:49:15.957Z,27.06
2019-06-08T15:51:22.386Z,26.94
2019-06-08T15:53:29.665Z,26.71
2019-06-08T15:55:38.190Z,26.55
2019-06-08T15:57:46.098Z,26.52
2019-06-08T15:59:52.517Z,26.47
2019-06-08T16:01:58.920Z,26.39
2019-06-08T16:04:05.536Z,26.36
2019-06-08T16:06:11.973Z,26.27
2019-06-08T16:08:18.367Z,26.23
2019-06-08T16:10:26.177Z,26.18
2019-06-08T16:12:33.251Z,26.06
2019-06-08T16:14:41.495Z,25.96
2019-06-08T16:16:48.202Z,25.89
2019-06-08T16:18:54.691Z,25.79
2019-06-08T16:21:01.152Z,25.63
2019-06-08T16:23:07.646Z,25.50
2019-06-08T16:25:14.377Z,25.40
2019-06-08T16:27:20.828Z,25.29
2019-06-08T16:29:27.245Z,25.27
2019-06-08T16:31:34.979Z,25.25
2019-06-08T16:33:44.185Z,25.14
2019-06-08T16:35:50.292Z,25.03
2019-06-08T16:37:56.694Z,24.88
2019-06-08T16:40:03.885Z,24.89
2019-06-08T16:42:10.371Z,24.86
2019-06-08T16:44:16.905Z,24.79
2019-06-08T16:46:23.407Z,24.81
2019-06-08T16:48:30.084Z,24.73
2019-06-08T16:50:36.530Z,24.75
2019-06-08T16:52:43.078Z,24.79
2019-06-08T16:54:50.682Z,24.74
2019-06-08T16:57:09.543Z,24.69
2019-06-08T16:59:05.391Z,24.67
2019-06-08T17:01:11.872Z,24.64
2019-06-08T17:03:18.487Z,24.62
2019-06-08T17:05:25.016Z,24.61
2019-06-08T17:07:32.180Z,24.61
2019-06-08T17:09:40.209Z,24.60
2019-06-08T17:11:46.686Z,24.61
2019-06-08T17:13:53.165Z,24.54
2019-06-08T17:15:59.608Z,24.54
2019-06-08T17:18:06.092Z,24.61
2019-06-08T17:20:13.312Z,24.56
2019-06-08T17:22:19.797Z,24.53
2019-06-08T17:24:26.251Z,24.43
2019-06-08T17:26:32.695Z,24.43
2019-06-08T17:28:39.170Z,24.44
2019-06-08T17:30:45.658Z,24.37
2019-06-08T17:32:52.061Z,24.51
2019-06-08T17:34:58.522Z,24.50
2019-06-08T17:37:05.194Z,24.68
2019-06-08T17:39:11.740Z,24.79
2019-06-08T17:41:18.364Z,24.88
2019-06-08T17:43:24.914Z,24.86
2019-06-08T17:45:32.354Z,24.98
2019-06-08T17:47:38.895Z,25.09
2019-06-08T17:49:45.405Z,25.09
2019-06-08T17:51:51.851Z,25.15
2019-06-08T17:53:58.849Z,25.16
2019-06-08T17:56:05.336Z,25.20
2019-06-08T17:58:11.885Z,25.16
2019-06-08T18:00:20.342Z,25.11
2019-06-08T18:02:29.079Z,25.03
2019-06-08T18:04:38.400Z,25.00
2019-06-08T18:06:47.386Z,24.96
2019-06-08T18:08:53.953Z,24.92
2019-06-08T18:11:00.440Z,24.87
2019-06-08T18:13:07.416Z,24.79
2019-06-08T18:15:17.469Z,24.71
2019-06-08T18:17:24.267Z,24.69
2019-06-08T18:19:34.165Z,24.65
2019-06-08T18:21:41.990Z,24.62
2019-06-08T18:23:48.809Z,24.63
2019-06-08T18:25:55.273Z,24.61
2019-06-08T18:28:09.229Z,24.57
2019-06-08T18:30:13.124Z,24.57
2019-06-08T18:32:20.316Z,24.47
2019-06-08T18:34:28.553Z,24.46
2019-06-08T18:36:38.055Z,24.40
2019-06-08T18:38:44.295Z,24.29
2019-06-08T18:40:51.272Z,24.16
2019-06-08T18:42:58.648Z,24.15
2019-06-08T18:45:09.091Z,24.18
2019-06-08T18:47:17.806Z,24.11
2019-06-08T18:49:28.820Z,24.05
2019-06-08T18:51:35.141Z,23.97
2019-06-08T18:54:01.507Z,23.93
2019-06-08T18:55:52.273Z,23.88
2019-06-08T18:57:58.696Z,23.82
2019-06-08T19:00:09.156Z,23.79
2019-06-08T19:02:17.955Z,23.71
2019-06-08T19:04:30.036Z,23.65
2019-06-08T19:06:34.419Z,23.59
2019-06-08T19:08:43.486Z,23.50
2019-06-08T19:10:51.335Z,23.48
2019-06-08T19:13:00.009Z,23.40
2019-06-08T19:15:11.356Z,23.33
2019-06-08T19:17:17.456Z,23.27
2019-06-08T19:19:24.108Z,23.22
2019-06-08T19:21:30.702Z,23.13
2019-06-08T19:23:40.479Z,23.03
2019-06-08T19:25:48.357Z,22.94
2019-06-08T19:27:54.791Z,22.88
2019-06-08T19:30:01.210Z,22.82
2019-06-08T19:32:07.688Z,22.71
2019-06-08T19:34:14.129Z,22.64
2019-06-08T19:36:20.600Z,22.59
2019-06-08T19:38:27.902Z,22.52
2019-06-08T19:40:34.918Z,22.48
2019-06-08T19:42:51.063Z,22.40
2019-06-08T19:45:01.154Z,22.33
2019-06-08T19:47:01.534Z,22.27
2019-06-08T19:49:09.002Z,22.21
2019-06-08T19:51:17.098Z,22.18
2019-06-08T19:53:23.735Z,22.11
2019-06-08T19:55:30.165Z,22.06
2019-06-08T19:57:39.226Z,22.02
2019-06-08T19:59:45.868Z,21.98
2019-06-08T20:01:56.399Z,21.89
2019-06-08T20:04:01.689Z,21.84
2019-06-08T20:06:08.147Z,21.75
2019-06-08T20:08:14.577Z,21.71
2019-06-08T20:10:21.000Z,21.68
2019-06-08T20:12:28.124Z,21.64
2019-06-08T20:14:37.274Z,21.59
2019-06-08T20:16:43.009Z,21.56
2019-06-08T20:18:51.253Z,21.52
2019-06-08T20:20:58.612Z,21.47
2019-06-08T20:23:09.563Z,21.44
2019-06-08T20:25:17.743Z,21.40
2019-06-08T20:27:24.176Z,21.36
2019-06-08T20:32:42.772Z,21.25
2019-06-08T20:35:09.330Z,21.23
2019-06-08T20:37:17.522Z,21.24
2019-06-08T20:39:23.936Z,21.23
2019-06-08T20:41:30.371Z,21.25
2019-06-08T20:43:38.134Z,21.28
2019-06-08T20:45:46.655Z,21.29
2019-06-08T20:47:53.907Z,21.30
2019-06-08T20:50:01.769Z,21.34
2019-06-08T20:52:09.858Z,21.34
2019-06-08T20:54:17.240Z,21.31
2019-06-08T20:56:24.653Z,21.29
2019-06-08T20:58:32.645Z,21.26
2019-06-08T21:00:39.079Z,21.27
2019-06-08T21:02:46.451Z,21.26
2019-06-08T21:04:55.800Z,21.28
2019-06-08T21:07:05.261Z,21.27
2019-06-08T21:09:11.745Z,21.26
2019-06-08T21:11:19.367Z,21.25
2019-06-08T21:13:27.876Z,21.26
2019-06-08T21:15:34.387Z,21.23
2019-06-08T21:17:40.789Z,21.23
2019-06-08T21:19:47.208Z,21.23
2019-06-08T21:21:55.045Z,21.23
2019-06-08T21:24:01.865Z,21.23
2019-06-08T21:26:08.799Z,21.23
2019-06-08T21:28:17.150Z,21.21
2019-06-08T21:30:24.633Z,21.23
2019-06-08T21:32:31.434Z,21.24
2019-06-08T21:34:38.092Z,21.24
2019-06-08T21:36:44.578Z,21.23
2019-06-08T21:38:53.937Z,21.19
2019-06-08T21:41:02.521Z,21.14
2019-06-08T21:43:08.080Z,21.11
2019-06-08T21:45:18.907Z,21.04
2019-06-08T21:47:27.201Z,20.98
2019-06-08T21:49:34.970Z,20.94
2019-06-08T21:51:42.495Z,20.90
2019-06-08T21:53:50.080Z,20.90
2019-06-08T21:55:58.327Z,20.86
2019-06-08T21:58:05.098Z,20.81
2019-06-08T22:00:29.389Z,20.78
2019-06-08T22:02:23.690Z,20.80
2019-06-08T22:04:32.956Z,20.82
2019-06-08T22:06:40.568Z,20.82
2019-06-08T22:08:48.129Z,20.80
2019-06-08T22:10:54.918Z,20.75
2019-06-08T22:13:02.917Z,20.73
2019-06-08T22:15:11.305Z,20.70
2019-06-08T22:17:18.963Z,20.68
2019-06-08T22:19:27.415Z,20.65
2019-06-08T22:21:33.552Z,20.62
2019-06-08T22:23:40.133Z,20.59
2019-06-08T22:25:47.730Z,20.58
2019-06-08T22:27:55.967Z,20.53
2019-06-08T22:30:09.771Z,20.49
2019-06-08T22:32:12.270Z,20.45
2019-06-08T22:34:18.832Z,20.41
2019-06-08T22:36:27.470Z,20.38
2019-06-08T22:38:37.246Z,20.34
2019-06-08T22:40:41.730Z,20.28
2019-06-08T22:42:48.906Z,20.23
2019-06-08T22:44:57.710Z,20.18
2019-06-08T22:47:04.806Z,20.10
2019-06-08T22:49:11.346Z,20.05
2019-06-08T22:51:18.752Z,19.98
2019-06-08T22:53:27.610Z,19.93
2019-06-08T22:55:33.376Z,19.89
2019-06-08T22:57:39.787Z,19.87
2019-06-08T22:59:47.714Z,19.86
2019-06-08T23:01:55.724Z,19.88
2019-06-08T23:04:04.320Z,19.89
2019-06-08T23:06:10.721Z,19.87
2019-06-08T23:08:18.636Z,19.84
2019-06-08T23:10:25.044Z,19.81
2019-06-08T23:12:31.465Z,19.78
2019-06-08T23:14:37.858Z,19.73
2019-06-08T23:16:44.409Z,19.76
2019-06-08T23:18:50.836Z,19.75
2019-06-08T23:21:01.169Z,19.73
2019-06-08T23:23:08.565Z,19.71
2019-06-08T23:25:13.774Z,19.63
2019-06-08T23:27:20.179Z,19.56
2019-06-08T23:29:27.340Z,19.50
2019-06-08T23:31:33.893Z,19.43
2019-06-08T23:33:41.341Z,19.36
2019-06-08T23:36:21.688Z,19.31
2019-06-08T23:37:56.844Z,19.24
2019-06-08T23:40:03.923Z,19.19
2019-06-08T23:42:10.383Z,19.11
2019-06-08T23:44:17.630Z,19.05
2019-06-08T23:46:24.359Z,19.00
2019-06-08T23:48:30.783Z,18.93
2019-06-08T23:50:38.233Z,18.88
2019-06-08T23:52:44.718Z,18.85
2019-06-08T23:54:52.403Z,18.84
2019-06-08T23:57:00.100Z,18.83
2019-06-08T23:59:09.920Z,18.84
